createdAt,value
2018-09-11T00:01:10.200Z,14.92
2018-09-11T00:03:44.868Z,14.75
2018-09-11T00:06:19.345Z,14.74
2018-09-11T00:08:53.989Z,14.71
2018-09-11T00:11:28.650Z,14.75
2018-09-11T00:14:03.265Z,14.71
2018-09-11T00:16:37.836Z,14.61
2018-09-11T00:19:12.425Z,14.57
2018-09-11T00:21:46.952Z,14.51
2018-09-11T00:24:21.456Z,14.47
2018-09-11T00:26:56.166Z,14.51
2018-09-11T00:29:30.862Z,14.51
2018-09-11T00:32:05.454Z,14.50
2018-09-11T00:34:39.980Z,14.49
2018-09-11T00:37:14.587Z,14.56
2018-09-11T00:39:49.213Z,14.53
2018-09-11T00:42:23.972Z,14.51
2018-09-11T00:44:58.663Z,14.50
2018-09-11T00:47:33.204Z,14.52
2018-09-11T00:50:07.989Z,14.51
2018-09-11T00:52:42.561Z,14.51
2018-09-11T00:55:17.300Z,14.55
2018-09-11T00:57:51.989Z,14.55
2018-09-11T01:00:26.629Z,14.56
2018-09-11T01:03:01.247Z,14.59
2018-09-11T01:05:35.851Z,14.58
2018-09-11T01:08:10.514Z,14.54
2018-09-11T01:10:45.066Z,14.51
2018-09-11T01:13:19.553Z,14.56
2018-09-11T01:15:54.168Z,14.58
2018-09-11T01:18:28.850Z,14.54
2018-09-11T01:21:03.406Z,14.56
2018-09-11T01:23:37.913Z,14.53
2018-09-11T01:26:12.580Z,14.53
2018-09-11T01:28:47.196Z,14.49
2018-09-11T01:31:21.836Z,14.47
2018-09-11T01:33:56.577Z,14.51
2018-09-11T01:36:31.326Z,14.49
2018-09-11T01:39:08.649Z,14.46
2018-09-11T01:41:43.317Z,14.44
2018-09-11T01:44:17.857Z,14.46
2018-09-11T01:46:52.558Z,14.46
2018-09-11T01:49:27.087Z,14.45
2018-09-11T01:52:01.740Z,14.41
2018-09-11T01:54:36.356Z,14.44
2018-09-11T01:57:11.073Z,14.44
2018-09-11T01:59:45.934Z,14.41
2018-09-11T02:02:20.925Z,14.44
2018-09-11T02:04:55.445Z,14.41
2018-09-11T02:07:29.984Z,14.39
2018-09-11T02:10:04.418Z,14.38
2018-09-11T02:12:39.086Z,14.35
2018-09-11T02:15:13.607Z,14.39
2018-09-11T02:17:48.334Z,14.34
2018-09-11T02:20:23.079Z,14.32
2018-09-11T02:22:57.849Z,14.36
2018-09-11T02:25:32.562Z,14.38
2018-09-11T02:28:07.225Z,14.40
2018-09-11T02:30:41.893Z,14.43
2018-09-11T02:33:16.912Z,14.39
2018-09-11T02:35:51.535Z,14.42
2018-09-11T02:38:26.061Z,14.42
2018-09-11T02:41:00.722Z,14.43
2018-09-11T02:43:35.317Z,14.45
2018-09-11T02:46:09.862Z,14.42
2018-09-11T02:48:44.566Z,14.37
2018-09-11T02:51:18.996Z,14.37
2018-09-11T02:53:53.584Z,14.34
2018-09-11T02:56:28.193Z,14.37
2018-09-11T02:59:02.893Z,14.32
2018-09-11T03:01:37.525Z,14.27
2018-09-11T03:04:12.140Z,14.23
2018-09-11T03:06:46.723Z,14.22
2018-09-11T03:09:21.754Z,14.23
2018-09-11T03:11:56.265Z,14.28
2018-09-11T03:14:30.832Z,14.24
2018-09-11T03:17:05.345Z,14.26
2018-09-11T03:19:39.797Z,14.15
2018-09-11T03:22:14.428Z,14.23
2018-09-11T03:24:48.964Z,14.18
2018-09-11T03:27:23.368Z,14.18
2018-09-11T03:29:57.952Z,14.16
2018-09-11T03:32:32.617Z,14.05
2018-09-11T03:35:08.556Z,14.05
2018-09-11T03:37:43.052Z,14.05
2018-09-11T03:40:17.698Z,14.13
2018-09-11T03:42:52.181Z,14.28
2018-09-11T03:45:26.744Z,14.40
2018-09-11T03:48:01.437Z,14.46
2018-09-11T03:50:36.065Z,14.50
2018-09-11T03:53:10.761Z,14.51
2018-09-11T03:55:45.861Z,14.54
2018-09-11T03:58:20.393Z,14.58
2018-09-11T04:00:55.089Z,14.57
2018-09-11T04:03:29.693Z,14.66
2018-09-11T04:06:04.421Z,14.63
2018-09-11T04:08:38.856Z,14.70
2018-09-11T04:11:13.480Z,14.72
2018-09-11T04:13:48.037Z,14.75
2018-09-11T04:16:22.749Z,14.77
2018-09-11T04:18:57.371Z,14.82
2018-09-11T04:21:32.233Z,14.80
2018-09-11T04:24:06.767Z,14.83
2018-09-11T04:26:41.440Z,14.84
2018-09-11T04:29:16.120Z,14.90
2018-09-11T04:31:50.749Z,14.86
2018-09-11T04:34:25.320Z,14.89
2018-09-11T04:37:00.025Z,15.03
2018-09-11T04:39:34.569Z,15.02
2018-09-11T04:42:09.245Z,15.01
2018-09-11T04:44:43.793Z,15.00
2018-09-11T04:47:18.480Z,15.03
2018-09-11T04:49:53.104Z,15.02
2018-09-11T04:52:27.750Z,14.93
2018-09-11T04:55:02.205Z,15.05
2018-09-11T04:57:36.824Z,15.01
2018-09-11T05:00:11.562Z,15.05
2018-09-11T05:02:46.185Z,15.02
2018-09-11T05:05:20.739Z,15.05
2018-09-11T05:07:55.288Z,14.96
2018-09-11T05:10:29.860Z,14.94
2018-09-11T05:13:04.366Z,14.99
2018-09-11T05:15:39.038Z,15.00
2018-09-11T05:18:13.641Z,15.00
2018-09-11T05:20:48.360Z,15.02
2018-09-11T05:23:23.047Z,15.05
2018-09-11T05:25:57.677Z,15.06
2018-09-11T05:28:32.309Z,15.01
2018-09-11T05:31:06.800Z,15.02
2018-09-11T05:33:41.400Z,15.05
2018-09-11T05:36:15.820Z,15.01
2018-09-11T05:38:50.595Z,15.09
2018-09-11T05:41:25.293Z,14.98
2018-09-11T05:43:59.869Z,14.92
2018-09-11T05:46:34.337Z,15.01
2018-09-11T05:49:08.832Z,14.96
2018-09-11T05:51:43.544Z,14.93
2018-09-11T05:54:18.032Z,14.87
2018-09-11T05:56:52.676Z,14.90
2018-09-11T05:59:27.364Z,15.07
2018-09-11T06:02:02.126Z,15.04
2018-09-11T06:04:36.796Z,15.06
2018-09-11T06:07:11.364Z,15.17
2018-09-11T06:09:45.817Z,15.15
2018-09-11T06:12:20.441Z,15.24
2018-09-11T06:14:55.033Z,15.46
2018-09-11T06:17:29.680Z,15.42
2018-09-11T06:20:04.312Z,15.45
2018-09-11T06:22:38.960Z,15.58
2018-09-11T06:25:13.552Z,15.66
2018-09-11T06:27:48.214Z,16.14
2018-09-11T06:30:22.880Z,16.47
2018-09-11T06:32:57.405Z,17.30
2018-09-11T06:35:32.170Z,17.45
2018-09-11T06:38:06.948Z,19.07
2018-09-11T06:40:41.529Z,19.67
2018-09-11T06:43:16.335Z,18.13
2018-09-11T06:45:51.062Z,17.29
2018-09-11T06:48:25.697Z,17.01
2018-09-11T06:51:00.297Z,16.86
2018-09-11T06:53:34.741Z,17.27
2018-09-11T06:56:09.252Z,19.10
2018-09-11T06:58:43.730Z,21.74
2018-09-11T07:01:18.493Z,23.86
2018-09-11T07:03:53.009Z,25.24
2018-09-11T07:06:27.621Z,28.44
2018-09-11T07:09:02.252Z,26.37
2018-09-11T07:11:36.916Z,22.99
2018-09-11T07:14:11.445Z,26.51
2018-09-11T07:16:46.123Z,26.24
2018-09-11T07:19:21.536Z,28.19
2018-09-11T07:21:56.139Z,25.51
2018-09-11T07:24:30.684Z,24.40
2018-09-11T07:27:05.470Z,23.02
2018-09-11T07:29:40.473Z,20.25
2018-09-11T07:32:15.006Z,19.93
2018-09-11T07:34:49.464Z,19.00
2018-09-11T07:37:23.986Z,19.08
2018-09-11T07:39:58.992Z,19.33
2018-09-11T07:42:33.508Z,18.98
2018-09-11T07:45:08.033Z,18.69
2018-09-11T07:47:42.756Z,18.95
2018-09-11T07:50:17.373Z,18.33
2018-09-11T07:52:51.878Z,18.08
2018-09-11T07:55:26.325Z,17.98
2018-09-11T07:58:01.060Z,17.78
2018-09-11T08:00:35.919Z,17.82
2018-09-11T08:03:10.488Z,18.38
2018-09-11T08:05:45.006Z,18.28
2018-09-11T08:08:19.665Z,18.91
2018-09-11T08:10:54.185Z,18.89
2018-09-11T08:13:28.666Z,19.14
2018-09-11T08:16:03.433Z,18.96
2018-09-11T08:18:37.981Z,19.01
2018-09-11T08:21:12.556Z,19.02
2018-09-11T08:23:47.134Z,19.47
2018-09-11T08:26:21.726Z,20.63
2018-09-11T08:28:56.753Z,20.63
2018-09-11T08:31:31.449Z,20.01
2018-09-11T08:34:05.977Z,20.65
2018-09-11T08:36:40.581Z,20.23
2018-09-11T08:39:15.105Z,20.53
2018-09-11T08:41:49.777Z,20.25
2018-09-11T08:44:24.411Z,19.34
2018-09-11T08:46:59.061Z,19.37
2018-09-11T08:49:33.716Z,19.76
2018-09-11T08:52:08.478Z,19.79
2018-09-11T08:54:43.118Z,19.78
2018-09-11T08:57:17.708Z,19.74
2018-09-11T08:59:52.428Z,19.94
2018-09-11T09:02:27.077Z,20.67
2018-09-11T09:05:01.957Z,21.74
2018-09-11T09:07:36.721Z,22.61
2018-09-11T09:10:11.227Z,22.56
2018-09-11T09:12:45.585Z,22.56
2018-09-11T09:15:19.980Z,22.22
2018-09-11T09:17:54.518Z,22.80
2018-09-11T09:20:29.138Z,22.84
2018-09-11T09:23:03.857Z,23.57
2018-09-11T09:25:38.333Z,22.56
2018-09-11T09:28:12.939Z,22.56
2018-09-11T09:30:47.682Z,22.78
2018-09-11T09:33:22.919Z,23.61
2018-09-11T09:35:57.420Z,23.10
2018-09-11T09:38:32.056Z,22.86
2018-09-11T09:41:06.649Z,22.78
2018-09-11T09:43:41.689Z,21.91
2018-09-11T09:46:16.213Z,21.97
2018-09-11T09:48:50.685Z,21.43
2018-09-11T09:51:25.568Z,21.36
2018-09-11T09:54:00.184Z,21.79
2018-09-11T09:56:35.165Z,21.34
2018-09-11T09:59:09.864Z,21.41
2018-09-11T10:01:49.800Z,21.58
2018-09-11T10:04:24.713Z,22.14
2018-09-11T10:06:59.225Z,21.97
2018-09-11T10:09:34.008Z,21.87
2018-09-11T10:12:08.603Z,22.00
2018-09-11T10:14:43.333Z,21.65
2018-09-11T10:17:17.896Z,21.58
2018-09-11T10:19:52.473Z,21.73
2018-09-11T10:22:27.113Z,21.83
2018-09-11T10:25:01.613Z,22.33
2018-09-11T10:27:36.103Z,22.06
2018-09-11T10:30:10.599Z,22.09
2018-09-11T10:32:45.528Z,21.91
2018-09-11T10:35:20.177Z,22.18
2018-09-11T10:37:54.957Z,22.08
2018-09-11T10:40:29.623Z,22.39
2018-09-11T10:43:04.377Z,22.59
2018-09-11T10:45:39.222Z,22.56
2018-09-11T10:48:13.874Z,22.93
2018-09-11T10:50:48.378Z,23.24
2018-09-11T10:53:22.985Z,23.57
2018-09-11T10:55:57.544Z,23.42
2018-09-11T10:58:32.181Z,23.78
2018-09-11T11:01:06.893Z,24.41
2018-09-11T11:03:41.389Z,24.58
2018-09-11T11:06:16.100Z,25.20
2018-09-11T11:08:50.617Z,25.55
2018-09-11T11:11:25.293Z,25.02
2018-09-11T11:14:00.021Z,24.55
2018-09-11T11:16:34.617Z,24.72
2018-09-11T11:19:09.090Z,24.91
2018-09-11T11:21:43.748Z,24.34
2018-09-11T11:24:23.884Z,25.15
2018-09-11T11:26:58.264Z,25.03
2018-09-11T11:29:32.925Z,25.45
2018-09-11T11:32:07.772Z,25.33
2018-09-11T11:34:42.496Z,25.55
2018-09-11T11:37:17.274Z,24.93
2018-09-11T11:39:51.816Z,24.02
2018-09-11T11:42:26.421Z,23.57
2018-09-11T11:45:01.050Z,23.72
2018-09-11T11:47:35.661Z,23.65
2018-09-11T11:50:10.373Z,23.28
2018-09-11T11:52:45.377Z,23.30
2018-09-11T11:55:19.868Z,23.24
2018-09-11T11:57:54.602Z,23.14
2018-09-11T12:00:29.361Z,23.33
2018-09-11T12:03:03.975Z,23.41
2018-09-11T12:05:38.673Z,23.46
2018-09-11T12:08:13.376Z,23.51
2018-09-11T12:10:47.901Z,23.62
2018-09-11T12:13:22.533Z,23.66
2018-09-11T12:15:57.312Z,23.85
2018-09-11T12:18:32.117Z,23.90
2018-09-11T12:21:06.664Z,23.97
2018-09-11T12:23:41.417Z,23.95
2018-09-11T12:26:16.026Z,23.95
2018-09-11T12:28:50.605Z,23.82
2018-09-11T12:31:25.860Z,23.96
2018-09-11T12:34:00.980Z,24.16
2018-09-11T12:36:37.738Z,23.92
2018-09-11T12:39:12.303Z,24.22
2018-09-11T12:41:46.917Z,24.18
2018-09-11T12:44:21.457Z,24.16
2018-09-11T12:46:56.418Z,24.14
2018-09-11T12:49:31.014Z,24.11
2018-09-11T12:52:05.750Z,24.20
2018-09-11T12:54:40.341Z,24.36
2018-09-11T12:57:14.957Z,24.42
2018-09-11T12:59:49.620Z,24.17
2018-09-11T13:02:31.270Z,24.12
2018-09-11T13:05:13.258Z,24.18
2018-09-11T13:07:47.917Z,24.28
2018-09-11T13:10:22.761Z,24.32
2018-09-11T13:12:57.432Z,24.24
2018-09-11T13:15:31.998Z,24.49
2018-09-11T13:18:06.646Z,24.50
2018-09-11T13:20:41.273Z,24.38
2018-09-11T13:23:15.793Z,24.31
2018-09-11T13:25:50.481Z,24.34
2018-09-11T13:28:25.180Z,24.48
2018-09-11T13:30:59.776Z,24.43
2018-09-11T13:33:36.534Z,24.58
2018-09-11T13:36:11.341Z,24.68
2018-09-11T13:38:46.077Z,24.82
2018-09-11T13:41:20.468Z,24.72
2018-09-11T13:43:55.018Z,24.82
2018-09-11T13:46:29.593Z,24.84
2018-09-11T13:49:04.257Z,24.93
2018-09-11T13:51:38.736Z,24.94
2018-09-11T13:54:13.405Z,24.91
2018-09-11T13:56:48.322Z,24.87
2018-09-11T13:59:22.914Z,24.97
2018-09-11T14:01:57.430Z,24.86
2018-09-11T14:04:31.972Z,24.90
2018-09-11T14:07:06.904Z,24.99
2018-09-11T14:09:41.346Z,25.11
2018-09-11T14:12:16.041Z,25.15
2018-09-11T14:14:50.509Z,25.22
2018-09-11T14:17:24.967Z,25.25
2018-09-11T14:19:59.597Z,25.22
2018-09-11T14:22:34.249Z,25.28
2018-09-11T14:25:08.809Z,25.37
2018-09-11T14:27:43.392Z,25.33
2018-09-11T14:30:17.934Z,25.51
2018-09-11T14:32:52.584Z,25.61
2018-09-11T14:35:27.142Z,25.84
2018-09-11T14:38:02.066Z,26.14
2018-09-11T14:40:36.512Z,27.23
2018-09-11T14:43:11.409Z,28.16
2018-09-11T14:45:46.115Z,29.35
2018-09-11T14:48:20.713Z,29.79
2018-09-11T14:50:55.339Z,29.01
2018-09-11T14:53:29.780Z,29.70
2018-09-11T14:56:04.496Z,30.32
2018-09-11T14:58:39.093Z,30.90
2018-09-11T15:01:15.878Z,31.20
2018-09-11T15:03:50.409Z,30.77
2018-09-11T15:06:24.874Z,29.70
2018-09-11T15:08:59.693Z,29.32
2018-09-11T15:11:34.058Z,28.02
2018-09-11T15:14:08.675Z,27.94
2018-09-11T15:16:43.232Z,27.80
2018-09-11T15:19:19.016Z,27.68
2018-09-11T15:21:53.416Z,27.35
2018-09-11T15:24:28.022Z,27.18
2018-09-11T15:27:04.002Z,26.89
2018-09-11T15:29:38.786Z,26.72
2018-09-11T15:32:13.396Z,26.88
2018-09-11T15:34:47.854Z,27.01
2018-09-11T15:37:22.480Z,26.88
2018-09-11T15:39:56.792Z,27.22
2018-09-11T15:42:31.753Z,26.99
2018-09-11T15:45:06.285Z,26.73
2018-09-11T15:47:40.685Z,26.91
2018-09-11T15:50:15.197Z,27.21
2018-09-11T15:52:49.869Z,27.50
2018-09-11T15:55:24.464Z,27.64
2018-09-11T15:57:58.984Z,27.82
2018-09-11T16:00:33.699Z,27.94
2018-09-11T16:03:08.235Z,28.01
2018-09-11T16:05:43.129Z,27.91
2018-09-11T16:08:17.736Z,28.32
2018-09-11T16:10:52.269Z,28.35
2018-09-11T16:13:26.722Z,27.65
2018-09-11T16:16:01.137Z,27.69
2018-09-11T16:18:35.848Z,27.16
2018-09-11T16:21:10.489Z,26.71
2018-09-11T16:23:45.196Z,26.06
2018-09-11T16:26:19.945Z,25.82
2018-09-11T16:28:54.590Z,25.64
2018-09-11T16:31:29.705Z,25.39
2018-09-11T16:34:04.252Z,25.30
2018-09-11T16:36:38.718Z,25.07
2018-09-11T16:39:13.765Z,24.98
2018-09-11T16:41:48.385Z,24.88
2018-09-11T16:44:22.837Z,24.79
2018-09-11T16:46:57.280Z,24.71
2018-09-11T16:49:32.041Z,24.66
2018-09-11T16:52:06.701Z,24.62
2018-09-11T16:54:41.484Z,24.55
2018-09-11T16:57:15.967Z,24.40
2018-09-11T16:59:50.447Z,24.46
2018-09-11T17:02:25.107Z,24.40
2018-09-11T17:04:59.846Z,24.27
2018-09-11T17:07:34.481Z,24.21
2018-09-11T17:10:09.045Z,24.18
2018-09-11T17:12:43.972Z,24.07
2018-09-11T17:15:18.413Z,23.87
2018-09-11T17:17:53.376Z,23.72
2018-09-11T17:20:27.956Z,23.67
2018-09-11T17:23:02.572Z,23.51
2018-09-11T17:25:37.178Z,23.48
2018-09-11T17:28:11.825Z,23.39
2018-09-11T17:30:46.426Z,23.33
2018-09-11T17:33:21.005Z,23.29
2018-09-11T17:35:55.718Z,23.25
2018-09-11T17:38:30.311Z,23.05
2018-09-11T17:41:05.004Z,22.91
2018-09-11T17:43:39.513Z,22.78
2018-09-11T17:46:14.073Z,22.71
2018-09-11T17:48:48.751Z,22.60
2018-09-11T17:51:23.113Z,22.55
2018-09-11T17:53:57.985Z,22.48
2018-09-11T17:56:32.624Z,22.33
2018-09-11T17:59:07.060Z,22.33
2018-09-11T18:01:41.790Z,22.19
2018-09-11T18:04:16.205Z,22.08
2018-09-11T18:06:51.040Z,22.01
2018-09-11T18:09:25.679Z,21.99
2018-09-11T18:12:00.262Z,21.99
2018-09-11T18:14:35.061Z,22.03
2018-09-11T18:17:09.600Z,21.81
2018-09-11T18:19:44.053Z,21.73
2018-09-11T18:22:18.676Z,21.57
2018-09-11T18:24:53.257Z,21.62
2018-09-11T18:27:27.985Z,21.53
2018-09-11T18:30:02.661Z,21.49
2018-09-11T18:32:37.637Z,21.36
2018-09-11T18:35:12.161Z,21.38
2018-09-11T18:37:46.861Z,21.19
2018-09-11T18:40:21.399Z,21.29
2018-09-11T18:42:56.087Z,21.18
2018-09-11T18:45:30.677Z,21.01
2018-09-11T18:48:06.274Z,20.93
2018-09-11T18:50:41.135Z,20.80
2018-09-11T18:53:15.760Z,20.68
2018-09-11T18:55:50.310Z,20.56
2018-09-11T18:58:25.046Z,20.53
2018-09-11T19:00:59.618Z,20.49
2018-09-11T19:03:34.253Z,20.46
2018-09-11T19:06:08.805Z,20.46
2018-09-11T19:08:43.456Z,20.49
2018-09-11T19:11:17.972Z,20.50
2018-09-11T19:13:53.418Z,20.55
2018-09-11T19:16:27.970Z,20.55
2018-09-11T19:19:02.500Z,20.53
2018-09-11T19:21:37.309Z,20.46
2018-09-11T19:24:11.968Z,20.53
2018-09-11T19:26:46.671Z,20.43
2018-09-11T19:29:21.289Z,20.40
2018-09-11T19:31:56.038Z,20.39
2018-09-11T19:34:30.573Z,20.33
2018-09-11T19:37:05.548Z,20.29
2018-09-11T19:39:40.889Z,20.23
2018-09-11T19:42:15.694Z,20.30
2018-09-11T19:44:50.261Z,20.32
2018-09-11T19:47:25.258Z,20.37
2018-09-11T19:49:59.728Z,20.39
2018-09-11T19:52:34.345Z,20.38
2018-09-11T19:55:08.916Z,20.46
2018-09-11T19:57:43.601Z,20.37
2018-09-11T20:00:18.346Z,20.28
2018-09-11T20:02:52.865Z,20.35
2018-09-11T20:05:27.489Z,20.21
2018-09-11T20:08:02.097Z,20.21
2018-09-11T20:10:36.669Z,20.14
2018-09-11T20:13:11.413Z,20.19
2018-09-11T20:15:45.948Z,20.12
2018-09-11T20:18:20.385Z,20.11
2018-09-11T20:20:55.105Z,20.11
2018-09-11T20:23:29.723Z,20.06
2018-09-11T20:26:04.311Z,20.05
2018-09-11T20:28:39.009Z,20.03
2018-09-11T20:31:13.778Z,19.96
2018-09-11T20:33:48.525Z,19.93
2018-09-11T20:36:23.142Z,19.88
2018-09-11T20:38:57.661Z,19.90
2018-09-11T20:41:32.214Z,19.91
2018-09-11T20:44:07.054Z,19.92
2018-09-11T20:46:41.684Z,19.81
2018-09-11T20:49:16.300Z,19.70
2018-09-11T20:51:50.925Z,19.69
2018-09-11T20:54:25.655Z,19.62
2018-09-11T20:57:00.497Z,19.59
2018-09-11T20:59:36.701Z,19.55
2018-09-11T21:05:10.786Z,19.49
2018-09-11T21:07:45.515Z,19.48
2018-09-11T21:10:20.240Z,19.43
2018-09-11T21:12:54.897Z,19.43
2018-09-11T21:15:29.529Z,19.36
2018-09-11T21:18:04.037Z,19.37
2018-09-11T21:20:38.572Z,19.32
2018-09-11T21:23:13.209Z,19.36
2018-09-11T21:25:47.765Z,19.39
2018-09-11T21:28:22.412Z,19.31
2018-09-11T21:30:57.473Z,19.29
2018-09-11T21:33:32.041Z,19.28
2018-09-11T21:36:06.783Z,19.24
2018-09-11T21:38:41.445Z,19.18
2018-09-11T21:41:16.081Z,19.19
2018-09-11T21:43:50.787Z,19.15
2018-09-11T21:46:25.636Z,19.12
2018-09-11T21:49:00.405Z,19.09
2018-09-11T21:51:34.960Z,19.04
2018-09-11T21:54:09.761Z,18.98
2018-09-11T21:56:44.280Z,18.92
2018-09-11T21:59:18.935Z,18.90
2018-09-11T22:01:54.200Z,18.82
2018-09-11T22:04:28.809Z,18.80
2018-09-11T22:07:03.369Z,18.78
2018-09-11T22:09:38.517Z,18.80
2018-09-11T22:12:13.077Z,18.81
2018-09-11T22:14:47.494Z,18.76
2018-09-11T22:17:22.154Z,18.73
2018-09-11T22:19:56.875Z,18.64
2018-09-11T22:22:31.493Z,18.58
2018-09-11T22:25:06.004Z,18.54
2018-09-11T22:27:40.662Z,18.54
2018-09-11T22:30:15.310Z,18.53
2018-09-11T22:32:49.852Z,18.49
2018-09-11T22:35:24.393Z,18.47
2018-09-11T22:37:59.184Z,18.44
2018-09-11T22:40:33.857Z,18.41
2018-09-11T22:43:08.715Z,18.41
2018-09-11T22:45:43.212Z,18.37
2018-09-11T22:48:17.888Z,18.31
2018-09-11T22:50:52.590Z,18.27
2018-09-11T22:53:27.305Z,18.25
2018-09-11T22:56:02.019Z,18.21
2018-09-11T22:58:36.705Z,18.18
2018-09-11T23:01:11.420Z,18.15
2018-09-11T23:03:46.063Z,18.11
2018-09-11T23:06:20.888Z,18.04
2018-09-11T23:08:55.630Z,18.02
2018-09-11T23:11:30.226Z,18.01
2018-09-11T23:14:04.818Z,17.94
2018-09-11T23:16:39.440Z,17.89
2018-09-11T23:19:14.029Z,17.91
2018-09-11T23:21:48.669Z,18.03
2018-09-11T23:24:23.158Z,18.04
2018-09-11T23:26:57.985Z,18.03
2018-09-11T23:29:32.590Z,17.94
2018-09-11T23:32:07.631Z,17.91
2018-09-11T23:34:42.457Z,17.88
2018-09-11T23:37:17.436Z,17.83
2018-09-11T23:39:52.181Z,17.85
2018-09-11T23:42:26.695Z,17.85
2018-09-11T23:45:01.341Z,17.81
2018-09-11T23:47:35.953Z,17.74
2018-09-11T23:50:10.552Z,17.72
2018-09-11T23:52:45.511Z,17.74
2018-09-11T23:55:19.958Z,17.76
2018-09-11T23:57:54.622Z,17.71
